createdAt,value
2023-03-28T00:02:17.799Z,99.90
2023-03-28T00:05:25.781Z,99.90
2023-03-28T00:07:57.592Z,99.90
2023-03-28T00:10:37.030Z,99.90
2023-03-28T00:13:14.478Z,99.90
2023-03-28T00:15:55.933Z,99.90
2023-03-28T00:18:34.519Z,99.90
2023-03-28T00:21:12.869Z,99.90
2023-03-28T00:23:52.758Z,99.90
2023-03-28T00:26:36.159Z,99.90
2023-03-28T00:29:12.806Z,99.90
2023-03-28T00:31:49.888Z,99.90
2023-03-28T00:34:27.746Z,99.90
2023-03-28T00:37:05.981Z,99.90
2023-03-28T00:39:43.831Z,99.90
2023-03-28T00:42:23.832Z,99.90
2023-03-28T00:45:01.904Z,99.90
2023-03-28T00:47:44.171Z,99.90
2023-03-28T00:50:23.370Z,99.90
2023-03-28T00:53:01.935Z,99.90
2023-03-28T00:55:39.575Z,99.90
2023-03-28T00:58:19.216Z,99.90
2023-03-28T01:00:55.424Z,99.90
2023-03-28T01:03:34.922Z,99.90
2023-03-28T01:06:14.154Z,99.90
2023-03-28T01:08:51.337Z,99.90
2023-03-28T01:11:27.835Z,99.90
2023-03-28T01:14:08.384Z,99.90
2023-03-28T01:16:48.095Z,99.90
2023-03-28T01:19:28.090Z,99.90
2023-03-28T01:22:14.932Z,99.90
2023-03-28T01:25:11.347Z,99.90
2023-03-28T01:27:46.089Z,99.90
2023-03-28T01:30:55.236Z,99.90
2023-03-28T01:34:42.083Z,99.90
2023-03-28T01:37:16.510Z,99.90
2023-03-28T01:40:30.276Z,99.90
2023-03-28T01:43:20.162Z,99.90
2023-03-28T01:45:59.505Z,99.90
2023-03-28T01:48:43.956Z,99.90
2023-03-28T01:51:15.133Z,99.90
2023-03-28T01:53:51.817Z,99.90
2023-03-28T01:56:31.127Z,99.90
2023-03-28T01:59:17.634Z,99.90
2023-03-28T02:02:14.218Z,99.90
2023-03-28T02:04:51.652Z,99.90
2023-03-28T02:07:29.257Z,99.90
2023-03-28T02:10:33.380Z,99.90
2023-03-28T02:13:23.101Z,99.90
2023-03-28T02:16:08.770Z,99.90
2023-03-28T02:19:16.139Z,99.90
2023-03-28T02:22:15.592Z,99.90
2023-03-28T02:25:11.040Z,99.90
2023-03-28T02:28:14.308Z,99.90
2023-03-28T02:31:02.058Z,99.90
2023-03-28T02:33:42.287Z,99.90
2023-03-28T02:36:33.998Z,99.90
2023-03-28T02:39:39.684Z,99.90
2023-03-28T02:42:45.339Z,99.90
2023-03-28T02:45:43.618Z,99.90
2023-03-28T02:48:24.947Z,99.90
2023-03-28T02:51:10.579Z,99.90
2023-03-28T02:53:48.583Z,99.90
2023-03-28T02:56:28.509Z,99.90
2023-03-28T02:59:18.337Z,99.90
2023-03-28T03:01:52.375Z,99.90
2023-03-28T03:04:28.120Z,99.90
2023-03-28T03:07:10.097Z,99.90
2023-03-28T03:09:54.102Z,99.90
2023-03-28T03:12:32.948Z,99.90
2023-03-28T03:15:13.468Z,99.90
2023-03-28T03:18:20.587Z,99.90
2023-03-28T03:21:02.265Z,99.90
2023-03-28T03:23:41.841Z,99.90
2023-03-28T03:26:21.657Z,99.90
2023-03-28T03:29:10.248Z,99.90
2023-03-28T03:31:49.611Z,99.90
2023-03-28T03:34:47.717Z,99.90
2023-03-28T03:37:23.430Z,99.90
2023-03-28T03:40:06.090Z,99.90
2023-03-28T03:42:43.764Z,99.90
2023-03-28T03:45:22.447Z,99.90
2023-03-28T03:48:01.045Z,99.90
2023-03-28T03:50:37.385Z,99.90
2023-03-28T03:53:22.949Z,99.90
2023-03-28T03:56:14.374Z,99.90
2023-03-28T03:59:17.794Z,99.90
2023-03-28T04:01:57.631Z,99.90
2023-03-28T04:04:49.900Z,99.90
2023-03-28T04:07:33.473Z,99.90
2023-03-28T04:10:14.073Z,99.90
2023-03-28T04:12:55.438Z,99.90
2023-03-28T04:15:32.601Z,99.90
2023-03-28T04:18:30.211Z,99.90
2023-03-28T04:21:06.096Z,99.90
2023-03-28T04:23:52.261Z,99.90
2023-03-28T04:26:40.148Z,99.90
2023-03-28T04:29:25.556Z,99.90
2023-03-28T04:32:21.897Z,99.90
2023-03-28T04:35:16.934Z,99.90
2023-03-28T04:37:59.409Z,99.90
2023-03-28T04:40:40.112Z,99.90
2023-03-28T04:43:41.928Z,99.90
2023-03-28T04:46:23.411Z,99.90
2023-03-28T04:49:00.646Z,99.90
2023-03-28T04:51:39.097Z,99.90
2023-03-28T04:54:17.062Z,99.90
2023-03-28T04:56:57.752Z,99.90
2023-03-28T04:59:47.786Z,99.90
2023-03-28T05:02:37.250Z,99.90
2023-03-28T05:05:16.283Z,99.90
2023-03-28T05:07:54.143Z,99.90
2023-03-28T05:10:30.789Z,99.90
2023-03-28T05:13:12.112Z,99.90
2023-03-28T05:15:52.307Z,99.90
2023-03-28T05:19:06.051Z,99.90
2023-03-28T05:22:03.856Z,99.90
2023-03-28T05:24:40.210Z,99.90
2023-03-28T05:27:24.366Z,99.90
2023-03-28T05:29:59.926Z,99.90
2023-03-28T05:32:35.141Z,99.90
2023-03-28T05:35:16.291Z,99.90
2023-03-28T05:37:51.112Z,99.90
2023-03-28T05:40:26.666Z,99.90
2023-03-28T05:43:01.931Z,99.90
2023-03-28T05:45:38.312Z,96.50
2023-03-28T05:48:29.849Z,99.90
2023-03-28T05:51:05.732Z,99.00
2023-03-28T05:53:46.017Z,98.30
2023-03-28T05:56:21.945Z,99.90
2023-03-28T05:59:02.204Z,99.90
2023-03-28T06:01:41.939Z,99.90
2023-03-28T06:04:19.395Z,99.90
2023-03-28T06:06:54.682Z,99.90
2023-03-28T06:09:38.571Z,99.90
2023-03-28T06:12:13.962Z,99.90
2023-03-28T06:14:57.687Z,99.90
2023-03-28T06:17:37.584Z,99.90
2023-03-28T06:20:14.926Z,99.90
2023-03-28T06:22:53.026Z,99.90
2023-03-28T06:25:33.535Z,99.90
2023-03-28T06:28:10.060Z,99.90
2023-03-28T06:31:05.078Z,99.90
2023-03-28T06:33:41.786Z,99.90
2023-03-28T06:36:19.054Z,99.90
2023-03-28T06:38:55.797Z,99.90
2023-03-28T06:41:38.360Z,99.90
2023-03-28T06:44:15.183Z,99.90
2023-03-28T06:47:23.252Z,99.90
2023-03-28T06:49:59.394Z,99.90
2023-03-28T06:52:48.879Z,99.90
2023-03-28T06:55:27.330Z,91.60
2023-03-28T06:58:09.441Z,99.90
2023-03-28T07:00:52.437Z,99.90
2023-03-28T07:03:46.377Z,99.90
2023-03-28T07:06:27.364Z,99.90
2023-03-28T07:09:06.617Z,99.90
2023-03-28T07:12:04.324Z,99.90
2023-03-28T07:14:51.946Z,99.90
2023-03-28T07:17:26.353Z,87.30
2023-03-28T07:20:02.200Z,97.40
2023-03-28T07:22:38.718Z,99.90
2023-03-28T07:25:16.679Z,96.50
2023-03-28T07:27:59.258Z,92.30
2023-03-28T07:30:33.125Z,95.20
2023-03-28T07:33:20.435Z,65.00
2023-03-28T07:36:12.723Z,61.30
2023-03-28T07:38:50.526Z,99.90
2023-03-28T07:41:28.021Z,6.00
2023-03-28T07:44:03.897Z,4.10
2023-03-28T07:46:40.974Z,40.60
2023-03-28T07:49:21.585Z,59.00
2023-03-28T07:51:59.599Z,51.60
2023-03-28T07:54:33.727Z,96.30
2023-03-28T07:57:10.474Z,99.90
2023-03-28T08:00:05.604Z,99.90
2023-03-28T08:02:57.846Z,99.90
2023-03-28T08:05:38.160Z,99.90
2023-03-28T08:08:14.417Z,99.90
2023-03-28T08:10:51.595Z,1.00
2023-03-28T08:13:28.942Z,1.00
2023-03-28T08:16:13.008Z,1.00
2023-03-28T08:18:57.057Z,1.00
2023-03-28T08:21:43.912Z,1.00
2023-03-28T08:24:29.018Z,1.00
2023-03-28T08:27:18.678Z,1.00
2023-03-28T08:29:58.333Z,1.00
2023-03-28T08:32:36.281Z,1.00
2023-03-28T08:35:12.689Z,1.00
2023-03-28T08:37:53.414Z,1.00
2023-03-28T08:40:29.701Z,1.00
2023-03-28T08:43:27.020Z,1.00
2023-03-28T08:46:03.409Z,1.00
2023-03-28T08:48:48.862Z,1.00
2023-03-28T08:51:27.368Z,1.00
2023-03-28T08:54:02.139Z,3.50
2023-03-28T08:56:44.675Z,99.90
2023-03-28T08:59:20.575Z,99.90
2023-03-28T09:01:57.962Z,99.90
2023-03-28T09:04:37.674Z,99.90
2023-03-28T09:07:28.079Z,1.00
2023-03-28T09:10:13.403Z,1.00
2023-03-28T09:13:10.926Z,1.00
2023-03-28T09:15:56.477Z,1.00
2023-03-28T09:18:55.119Z,1.00
2023-03-28T09:21:34.580Z,1.00
2023-03-28T09:24:30.762Z,1.00
2023-03-28T09:27:26.969Z,1.00
2023-03-28T09:30:13.733Z,23.20
2023-03-28T09:32:53.732Z,36.80
2023-03-28T09:35:31.226Z,53.00
2023-03-28T09:38:10.423Z,80.60
2023-03-28T09:40:47.975Z,96.00
2023-03-28T09:43:29.873Z,99.90
2023-03-28T09:46:27.789Z,99.90
2023-03-28T09:49:44.763Z,99.90
2023-03-28T09:52:23.211Z,99.90
2023-03-28T09:55:01.156Z,99.90
2023-03-28T09:58:07.442Z,88.60
2023-03-28T10:01:03.843Z,99.90
2023-03-28T10:04:06.473Z,99.90
2023-03-28T10:07:31.553Z,99.90
2023-03-28T10:10:20.706Z,99.90
2023-03-28T10:13:01.309Z,99.90
2023-03-28T10:16:04.340Z,99.90
2023-03-28T10:19:05.396Z,99.90
2023-03-28T10:21:48.069Z,99.90
2023-03-28T10:24:33.367Z,99.90
2023-03-28T10:27:13.349Z,95.30
2023-03-28T10:29:51.486Z,1.00
2023-03-28T10:32:29.106Z,1.00
2023-03-28T10:35:31.261Z,1.00
2023-03-28T10:38:34.695Z,1.00
2023-03-28T10:41:40.079Z,1.00
2023-03-28T10:44:22.365Z,1.00
2023-03-28T10:47:12.396Z,1.00
2023-03-28T10:50:10.790Z,1.00
2023-03-28T10:52:50.136Z,1.00
2023-03-28T10:55:36.810Z,1.00
2023-03-28T10:58:23.152Z,1.00
2023-03-28T11:01:10.282Z,1.00
2023-03-28T11:04:07.574Z,1.00
2023-03-28T11:06:44.476Z,1.00
2023-03-28T11:09:22.701Z,1.00
2023-03-28T11:12:29.794Z,1.00
2023-03-28T11:15:10.884Z,1.00
2023-03-28T11:18:03.668Z,1.00
2023-03-28T11:20:45.058Z,1.00
2023-03-28T11:23:49.667Z,1.00
2023-03-28T11:26:45.046Z,99.90
2023-03-28T11:29:40.143Z,99.90
2023-03-28T11:32:24.998Z,99.90
2023-03-28T11:35:10.878Z,70.60
2023-03-28T11:37:51.834Z,99.90
2023-03-28T11:40:32.105Z,99.90
2023-03-28T11:43:15.082Z,1.00
2023-03-28T11:45:53.421Z,99.90
2023-03-28T11:48:36.442Z,1.00
2023-03-28T11:51:24.464Z,1.00
2023-03-28T11:54:05.786Z,1.00
2023-03-28T11:56:48.682Z,1.00
2023-03-28T11:59:31.493Z,1.00
2023-03-28T12:02:10.127Z,1.00
2023-03-28T12:04:49.058Z,1.00
2023-03-28T12:07:33.776Z,1.00
2023-03-28T12:10:25.642Z,1.00
2023-03-28T12:13:05.258Z,1.00
2023-03-28T12:15:47.783Z,1.00
2023-03-28T12:18:29.535Z,1.00
2023-03-28T12:21:11.172Z,1.00
2023-03-28T12:24:02.352Z,1.00
2023-03-28T12:26:59.864Z,1.00
2023-03-28T12:29:38.327Z,1.00
2023-03-28T12:32:26.124Z,1.00
2023-03-28T12:35:08.892Z,4.50
2023-03-28T12:38:01.732Z,14.80
2023-03-28T12:40:51.006Z,1.00
2023-03-28T12:43:29.075Z,1.00
2023-03-28T12:46:07.774Z,1.00
2023-03-28T12:48:47.870Z,1.00
2023-03-28T12:51:26.254Z,1.00
2023-03-28T12:54:06.228Z,1.00
2023-03-28T12:56:45.312Z,1.00
2023-03-28T12:59:52.121Z,1.00
2023-03-28T13:02:44.994Z,1.00
2023-03-28T13:05:23.892Z,1.00
2023-03-28T13:08:04.415Z,1.00
2023-03-28T13:10:45.412Z,1.00
2023-03-28T13:13:27.505Z,99.90
2023-03-28T13:16:08.362Z,61.10
2023-03-28T13:18:52.478Z,99.90
2023-03-28T13:21:45.515Z,1.00
2023-03-28T13:24:34.673Z,1.00
2023-03-28T13:27:18.258Z,11.60
2023-03-28T13:29:57.055Z,34.50
2023-03-28T13:32:35.847Z,28.30
2023-03-28T13:35:33.567Z,23.50
2023-03-28T13:38:20.118Z,19.70
2023-03-28T13:41:00.052Z,10.70
2023-03-28T13:43:43.704Z,1.00
2023-03-28T13:46:22.967Z,1.00
2023-03-28T13:48:59.139Z,1.00
2023-03-28T13:51:35.603Z,1.00
2023-03-28T13:54:12.851Z,1.00
2023-03-28T13:56:48.862Z,1.00
2023-03-28T13:59:27.084Z,1.00
2023-03-28T14:02:05.389Z,1.00
2023-03-28T14:04:41.328Z,1.00
2023-03-28T14:07:18.572Z,1.00
2023-03-28T14:09:54.122Z,1.00
2023-03-28T14:12:33.466Z,1.00
2023-03-28T14:15:11.840Z,1.00
2023-03-28T14:17:51.253Z,1.00
2023-03-28T14:20:28.536Z,1.00
2023-03-28T14:23:06.005Z,1.00
2023-03-28T14:25:44.397Z,1.00
2023-03-28T14:28:22.337Z,1.00
2023-03-28T14:30:59.978Z,1.00
2023-03-28T14:33:40.608Z,99.90
2023-03-28T14:36:25.248Z,1.00
2023-03-28T14:39:07.037Z,99.90
2023-03-28T14:41:43.320Z,99.90
2023-03-28T14:44:18.884Z,99.90
2023-03-28T14:47:00.128Z,1.00
2023-03-28T14:49:38.934Z,99.90
2023-03-28T14:52:17.685Z,99.90
2023-03-28T14:54:55.887Z,99.90
2023-03-28T14:57:31.500Z,99.90
2023-03-28T15:00:13.305Z,99.90
2023-03-28T15:02:50.329Z,41.80
2023-03-28T15:05:30.022Z,1.00
2023-03-28T15:08:09.390Z,41.50
2023-03-28T15:10:51.024Z,1.00
2023-03-28T15:13:28.666Z,99.90
2023-03-28T15:16:06.086Z,99.90
2023-03-28T15:18:47.347Z,99.90
2023-03-28T15:21:27.076Z,1.00
2023-03-28T15:24:04.571Z,1.00
2023-03-28T15:26:40.910Z,82.10
2023-03-28T15:29:16.884Z,1.00
2023-03-28T15:31:54.883Z,99.90
2023-03-28T15:34:31.776Z,99.90
2023-03-28T15:37:10.836Z,99.90
2023-03-28T15:39:49.848Z,99.90
2023-03-28T15:42:37.508Z,99.90
2023-03-28T15:45:28.442Z,99.90
2023-03-28T15:48:03.860Z,95.40
2023-03-28T15:50:41.675Z,99.90
2023-03-28T15:53:21.787Z,99.90
2023-03-28T15:56:03.542Z,99.90
2023-03-28T15:58:45.373Z,99.90
2023-03-28T16:01:26.787Z,99.90
2023-03-28T16:04:35.605Z,90.20
2023-03-28T16:07:14.460Z,99.90
2023-03-28T16:09:54.968Z,99.90
2023-03-28T16:12:30.234Z,99.90
2023-03-28T16:15:37.988Z,99.90
2023-03-28T16:18:38.086Z,99.90
2023-03-28T16:21:15.705Z,99.90
2023-03-28T16:23:52.610Z,99.90
2023-03-28T16:26:32.944Z,99.90
2023-03-28T16:29:13.176Z,99.90
2023-03-28T16:31:50.342Z,99.90
2023-03-28T16:34:26.275Z,99.90
2023-03-28T16:37:05.020Z,84.40
2023-03-28T16:39:41.314Z,87.90
2023-03-28T16:42:21.586Z,99.90
2023-03-28T16:44:56.950Z,99.90
2023-03-28T16:47:35.235Z,68.40
2023-03-28T16:50:14.670Z,99.90
2023-03-28T16:52:51.422Z,84.70
2023-03-28T16:55:27.672Z,33.60
2023-03-28T16:58:06.324Z,78.30
2023-03-28T17:00:49.359Z,95.80
2023-03-28T17:03:29.576Z,63.90
2023-03-28T17:06:14.248Z,95.10
2023-03-28T17:08:53.915Z,99.90
2023-03-28T17:11:29.008Z,99.90
2023-03-28T17:14:11.329Z,99.90
2023-03-28T17:16:47.594Z,99.90
2023-03-28T17:19:27.715Z,99.90
2023-03-28T17:22:01.607Z,99.90
2023-03-28T17:24:37.288Z,99.90
2023-03-28T17:27:12.484Z,99.90
2023-03-28T17:29:51.792Z,99.90
2023-03-28T17:32:27.330Z,99.90
2023-03-28T17:35:04.595Z,1.00
2023-03-28T17:37:41.231Z,1.00
2023-03-28T17:40:16.858Z,19.00
2023-03-28T17:42:51.556Z,99.90
2023-03-28T17:45:29.970Z,99.90
2023-03-28T17:48:04.998Z,99.90
2023-03-28T17:50:40.557Z,99.90
2023-03-28T17:53:15.607Z,99.90
2023-03-28T17:55:52.431Z,99.90
2023-03-28T17:58:28.264Z,1.00
2023-03-28T18:01:11.558Z,45.80
2023-03-28T18:03:51.786Z,77.70
2023-03-28T18:06:52.253Z,99.90
2023-03-28T18:09:29.571Z,99.90
2023-03-28T18:12:09.677Z,99.90
2023-03-28T18:14:44.276Z,1.00
2023-03-28T18:17:27.826Z,1.00
2023-03-28T18:20:05.917Z,1.00
2023-03-28T18:22:42.718Z,1.00
2023-03-28T18:25:20.977Z,1.00
2023-03-28T18:27:57.019Z,1.00
2023-03-28T18:30:32.066Z,99.90
2023-03-28T18:33:12.164Z,99.90
2023-03-28T18:35:53.304Z,99.90
2023-03-28T18:38:30.021Z,1.00
2023-03-28T18:41:10.358Z,1.00
2023-03-28T18:43:46.746Z,1.00
2023-03-28T18:46:26.609Z,99.90
2023-03-28T18:49:09.424Z,41.00
2023-03-28T18:51:55.016Z,99.90
2023-03-28T18:54:33.212Z,65.90
2023-03-28T18:57:07.836Z,99.90
2023-03-28T18:59:46.142Z,1.00
2023-03-28T19:02:24.474Z,1.00
2023-03-28T19:05:07.431Z,1.00
2023-03-28T19:07:45.655Z,26.40
2023-03-28T19:10:23.830Z,1.00
2023-03-28T19:13:00.541Z,1.00
2023-03-28T19:15:39.726Z,99.90
2023-03-28T19:18:19.590Z,99.90
2023-03-28T19:21:05.181Z,99.90
2023-03-28T19:23:46.284Z,99.90
2023-03-28T19:26:26.213Z,99.90
2023-03-28T19:29:05.097Z,99.90
2023-03-28T19:31:46.772Z,99.90
2023-03-28T19:34:25.606Z,99.90
2023-03-28T19:37:06.538Z,99.90
2023-03-28T19:39:46.219Z,99.90
2023-03-28T19:42:20.391Z,99.90
2023-03-28T19:44:56.731Z,1.00
2023-03-28T19:47:39.884Z,1.00
2023-03-28T19:50:22.994Z,1.00
2023-03-28T19:53:07.493Z,99.90
2023-03-28T19:55:44.250Z,99.90
2023-03-28T19:58:21.914Z,99.90
2023-03-28T20:00:59.836Z,99.90
2023-03-28T20:03:35.248Z,99.90
2023-03-28T20:06:12.928Z,99.90
2023-03-28T20:08:57.203Z,99.90
2023-03-28T20:11:40.319Z,99.90
2023-03-28T20:14:18.213Z,99.90
2023-03-28T20:16:55.735Z,99.90
2023-03-28T20:19:40.349Z,1.00
2023-03-28T20:22:19.004Z,1.00
2023-03-28T20:25:01.145Z,1.00
2023-03-28T20:27:36.805Z,1.00
2023-03-28T20:30:15.463Z,1.00
2023-03-28T20:32:52.617Z,1.00
2023-03-28T20:35:34.593Z,1.00
2023-03-28T20:38:12.860Z,1.00
2023-03-28T20:41:08.666Z,99.90
2023-03-28T20:43:47.501Z,1.00
2023-03-28T20:46:27.012Z,68.00
2023-03-28T20:49:07.369Z,10.20
2023-03-28T20:51:50.600Z,1.00
2023-03-28T20:54:32.348Z,1.00
2023-03-28T20:57:12.386Z,1.00
2023-03-28T20:59:57.040Z,1.00
2023-03-28T21:02:36.917Z,1.00
2023-03-28T21:05:16.246Z,1.00
2023-03-28T21:07:55.895Z,1.00
2023-03-28T21:10:33.625Z,1.00
2023-03-28T21:13:16.729Z,1.00
2023-03-28T21:15:56.845Z,1.00
2023-03-28T21:18:37.954Z,1.00
2023-03-28T21:21:16.777Z,1.00
2023-03-28T21:23:59.205Z,1.00
2023-03-28T21:26:39.442Z,1.00
2023-03-28T21:29:35.429Z,1.00
2023-03-28T21:32:14.902Z,1.00
2023-03-28T21:34:56.972Z,1.00
2023-03-28T21:37:32.314Z,1.00
2023-03-28T21:40:10.768Z,1.00
2023-03-28T21:42:49.002Z,1.00
2023-03-28T21:45:27.602Z,1.00
2023-03-28T21:48:08.912Z,1.00
2023-03-28T21:50:46.505Z,1.00
2023-03-28T21:53:26.601Z,1.00
2023-03-28T21:56:02.402Z,1.00
2023-03-28T21:58:43.370Z,1.00
2023-03-28T22:01:21.163Z,1.00
2023-03-28T22:04:00.272Z,1.00
2023-03-28T22:06:34.707Z,1.00
2023-03-28T22:09:11.520Z,1.00
2023-03-28T22:11:50.112Z,1.00
2023-03-28T22:14:28.679Z,1.00
2023-03-28T22:17:05.175Z,1.00
2023-03-28T22:19:54.213Z,1.00
2023-03-28T22:22:36.083Z,1.00
2023-03-28T22:25:15.239Z,1.00
2023-03-28T22:27:53.288Z,1.00
2023-03-28T22:30:31.923Z,1.00
2023-03-28T22:33:07.591Z,1.00
2023-03-28T22:35:47.444Z,1.00
2023-03-28T22:38:24.877Z,1.00
2023-03-28T22:41:03.347Z,1.00
2023-03-28T22:44:02.726Z,1.00
2023-03-28T22:46:43.264Z,1.00
2023-03-28T22:49:22.529Z,1.00
2023-03-28T22:52:02.445Z,1.00
2023-03-28T22:54:39.534Z,1.00
2023-03-28T22:57:15.043Z,1.00
2023-03-28T22:59:54.166Z,1.00
2023-03-28T23:02:31.047Z,1.00
2023-03-28T23:05:08.415Z,1.00
2023-03-28T23:07:49.177Z,1.00
2023-03-28T23:10:25.389Z,1.00
2023-03-28T23:13:00.659Z,1.00
2023-03-28T23:15:39.488Z,1.00
2023-03-28T23:18:16.993Z,1.00
2023-03-28T23:20:55.603Z,1.00
2023-03-28T23:23:36.219Z,1.00
2023-03-28T23:26:12.824Z,1.00
2023-03-28T23:28:51.893Z,1.00
2023-03-28T23:31:27.359Z,1.00
2023-03-28T23:34:05.283Z,1.00
2023-03-28T23:36:41.762Z,1.00
2023-03-28T23:39:21.391Z,1.00
2023-03-28T23:41:57.679Z,1.00
2023-03-28T23:44:34.679Z,1.00
2023-03-28T23:47:12.998Z,1.00
2023-03-28T23:49:51.049Z,1.00
2023-03-28T23:52:29.625Z,5.20
2023-03-28T23:55:11.121Z,5.80
2023-03-28T23:57:47.662Z,9.80
